Time;durP1;ratioP1;P1;durP2;ratioP2;P2;SDS_P1;SDS_P2;PMS_P1;PMS_P2;Temp;Humidity;BMP_temperature;BMP_pressure;BME280_temperature;BME280_humidity;BME280_pressure;Samples;Min_cycle;Max_cycle;Signal;HPM_P1;HPM_P2
2023/10/31 00:01:49;;;;;;;123.37;113.00;;;12.60;99.90;;;;;;5057206;28;20166;-76
2023/10/31 00:04:15;;;;;;;121.93;111.90;;;12.70;99.90;;;;;;5056714;28;20193;-76
2023/10/31 00:06:41;;;;;;;115.38;105.80;;;12.60;99.90;;;;;;5056551;28;20169;-76
2023/10/31 00:09:07;;;;;;;126.05;115.97;;;12.60;99.90;;;;;;5056596;28;20665;-76
2023/10/31 00:11:32;;;;;;;114.83;105.33;;;12.60;99.90;;;;;;5056701;28;20223;-76
2023/10/31 00:13:58;;;;;;;107.60;98.47;;;12.60;99.90;;;;;;5055991;28;20220;-76
2023/10/31 00:16:24;;;;;;;111.43;102.07;;;12.50;99.90;;;;;;5056087;28;20223;-76
2023/10/31 00:18:49;;;;;;;108.50;99.23;;;12.40;99.90;;;;;;5056092;28;20185;-76
2023/10/31 00:21:15;;;;;;;114.50;104.90;;;12.50;99.90;;;;;;5056300;28;20163;-76
2023/10/31 00:23:48;;;;;;;119.63;109.77;;;12.50;99.90;;;;;;5056140;28;20538;-76
2023/10/31 00:26:14;;;;;;;110.90;101.55;;;12.60;99.90;;;;;;5056187;28;20216;-76
2023/10/31 00:28:40;;;;;;;121.85;111.82;;;12.60;99.90;;;;;;5055976;28;20188;-76
2023/10/31 00:31:07;;;;;;;142.33;131.63;;;12.60;99.90;;;;;;5055269;28;20170;-76
2023/10/31 00:33:34;;;;;;;111.32;101.60;;;12.60;99.90;;;;;;5055974;28;20189;-76
2023/10/31 00:36:00;;;;;;;112.07;102.05;;;12.50;99.90;;;;;;5055926;28;20165;-76
2023/10/31 00:38:26;;;;;;;101.87;92.23;;;12.50;99.90;;;;;;5056131;28;20646;-76
2023/10/31 00:40:52;;;;;;;103.70;94.57;;;12.50;99.90;;;;;;5055452;28;20400;-76
2023/10/31 00:43:17;;;;;;;113.40;103.50;;;12.50;99.90;;;;;;5055429;28;20528;-76
2023/10/31 00:45:43;;;;;;;103.57;94.30;;;12.50;99.90;;;;;;5055382;28;20188;-76
2023/10/31 00:48:08;;;;;;;90.20;81.67;;;12.50;99.90;;;;;;5055696;28;20166;-76
2023/10/31 00:50:34;;;;;;;87.60;79.03;;;12.50;99.90;;;;;;5055670;28;20219;-76
2023/10/31 00:53:00;;;;;;;82.77;74.47;;;12.50;99.90;;;;;;5055711;28;20234;-76
2023/10/31 00:55:25;;;;;;;84.07;75.37;;;12.40;99.90;;;;;;5055509;28;20166;-76
2023/10/31 00:57:51;;;;;;;91.73;83.20;;;12.40;99.90;;;;;;5053848;28;20255;-76
2023/10/31 01:00:17;;;;;;;87.53;78.93;;;12.30;99.90;;;;;;5054073;28;20173;-76
2023/10/31 01:02:43;;;;;;;88.35;79.90;;;12.30;99.90;;;;;;5055483;28;20181;-76
2023/10/31 01:05:10;;;;;;;97.67;88.73;;;12.30;99.90;;;;;;5055160;28;20264;-76
2023/10/31 01:07:36;;;;;;;100.05;91.10;;;12.30;99.90;;;;;;5055504;28;20219;-76
2023/10/31 01:10:02;;;;;;;91.97;83.30;;;12.30;99.90;;;;;;5055188;28;20173;-76
2023/10/31 01:12:28;;;;;;;92.47;83.47;;;12.30;99.90;;;;;;5054985;28;20183;-76
2023/10/31 01:14:54;;;;;;;93.37;84.23;;;12.30;99.90;;;;;;5054830;28;20165;-76
2023/10/31 01:17:21;;;;;;;97.80;88.90;;;12.20;99.90;;;;;;5054776;28;20197;-76
2023/10/31 01:19:46;;;;;;;91.65;82.97;;;12.10;99.90;;;;;;5055368;28;20181;-76
2023/10/31 01:22:12;;;;;;;90.33;81.73;;;12.10;99.90;;;;;;5054703;28;20161;-76
2023/10/31 01:24:38;;;;;;;98.00;88.63;;;12.10;99.90;;;;;;5054706;28;20196;-76
2023/10/31 01:27:03;;;;;;;89.33;80.83;;;12.00;99.90;;;;;;5054758;28;20165;-76
2023/10/31 01:29:29;;;;;;;91.17;82.47;;;11.90;99.90;;;;;;5054715;28;20172;-76
2023/10/31 01:31:55;;;;;;;96.23;87.37;;;12.00;99.90;;;;;;5054630;28;20414;-76
2023/10/31 01:34:21;;;;;;;91.25;82.68;;;12.00;99.90;;;;;;5054667;28;20182;-76
2023/10/31 01:36:46;;;;;;;92.87;84.17;;;12.00;99.90;;;;;;5054988;28;20557;-76
2023/10/31 01:39:12;;;;;;;97.23;88.40;;;11.90;99.90;;;;;;5054623;28;20680;-76
2023/10/31 01:41:40;;;;;;;72.23;64.47;;;11.90;99.90;;;;;;5054663;28;20165;-76
2023/10/31 01:44:06;;;;;;;90.55;82.05;;;11.80;99.90;;;;;;5054403;28;20224;-76
2023/10/31 01:46:31;;;;;;;77.17;68.93;;;11.90;99.90;;;;;;5054337;28;20189;-76
2023/10/31 01:49:00;;;;;;;90.83;82.23;;;11.90;99.90;;;;;;5054231;28;20173;-76
2023/10/31 01:51:27;;;;;;;87.10;78.57;;;11.90;99.90;;;;;;5054699;28;20193;-76
2023/10/31 01:53:54;;;;;;;86.22;77.63;;;11.90;99.90;;;;;;5053989;28;20590;-76
2023/10/31 01:56:20;;;;;;;82.10;73.80;;;11.80;99.90;;;;;;5054300;28;20160;-76
2023/10/31 01:58:48;;;;;;;80.30;72.10;;;11.80;99.90;;;;;;5054254;28;20204;-76
2023/10/31 02:01:16;;;;;;;82.18;73.90;;;11.60;99.90;;;;;;5053962;28;20482;-76
2023/10/31 02:03:42;;;;;;;77.78;69.55;;;11.70;99.90;;;;;;5053865;28;20246;-75
2023/10/31 02:06:08;;;;;;;85.37;76.87;;;11.70;99.90;;;;;;5054436;28;20165;-76
2023/10/31 02:08:33;;;;;;;92.20;83.50;;;11.60;99.90;;;;;;5054147;28;20169;-76
2023/10/31 02:10:59;;;;;;;83.03;74.73;;;11.60;99.90;;;;;;5053800;28;20169;-76
2023/10/31 02:13:25;;;;;;;83.83;75.63;;;11.60;99.90;;;;;;5053712;28;20189;-75
2023/10/31 02:15:51;;;;;;;87.03;78.60;;;11.60;99.90;;;;;;5054040;28;20168;-76
2023/10/31 02:18:17;;;;;;;87.90;79.40;;;11.60;99.90;;;;;;5053409;28;20193;-75
2023/10/31 02:20:43;;;;;;;98.03;89.23;;;11.60;99.90;;;;;;5053845;28;20161;-76
2023/10/31 02:23:08;;;;;;;84.60;76.28;;;11.60;99.90;;;;;;5035558;28;20423;-76
2023/10/31 02:25:34;;;;;;;77.33;69.20;;;11.50;99.90;;;;;;5053820;28;20527;-76
2023/10/31 02:28:00;;;;;;;82.47;73.90;;;11.50;99.90;;;;;;5053508;28;20207;-76
2023/10/31 02:30:27;;;;;;;90.13;81.43;;;11.40;99.90;;;;;;5053604;28;20161;-76
2023/10/31 02:32:52;;;;;;;86.57;77.68;;;11.30;99.90;;;;;;5052187;28;20185;-76
2023/10/31 02:35:18;;;;;;;85.77;77.07;;;11.20;99.90;;;;;;5053381;28;20168;-75
2023/10/31 02:37:48;;;;;;;79.75;71.43;;;11.20;99.90;;;;;;5053192;28;20189;-76
2023/10/31 02:40:14;;;;;;;80.75;72.55;;;11.00;99.90;;;;;;5053548;28;20161;-76
2023/10/31 02:42:39;;;;;;;83.43;74.90;;;11.00;99.90;;;;;;5053206;28;20666;-76
2023/10/31 02:45:06;;;;;;;82.30;73.83;;;10.90;99.90;;;;;;5053194;28;20169;-76
2023/10/31 02:47:32;;;;;;;79.10;70.78;;;10.90;99.90;;;;;;5053225;28;20169;-76
2023/10/31 02:49:57;;;;;;;93.33;84.73;;;10.90;99.90;;;;;;5053164;28;20176;-76
2023/10/31 02:52:23;;;;;;;93.70;84.87;;;10.80;99.90;;;;;;5053054;28;20643;-76
2023/10/31 02:54:48;;;;;;;106.37;96.23;;;10.80;99.90;;;;;;5052925;28;20169;-76
2023/10/31 02:57:17;;;;;;;112.07;102.00;;;10.80;99.90;;;;;;5052271;28;20196;-76
2023/10/31 02:59:43;;;;;;;125.57;115.10;;;10.70;99.90;;;;;;5054264;28;20161;-78
2023/10/31 03:02:08;;;;;;;86.10;77.67;;;10.70;99.90;;;;;;5054917;28;20158;-76
2023/10/31 03:04:34;;;;;;;97.07;87.97;;;10.70;99.90;;;;;;5053706;28;20678;-76
2023/10/31 03:07:00;;;;;;;102.53;93.23;;;10.80;99.90;;;;;;5052991;28;20192;-76
2023/10/31 03:09:25;;;;;;;99.10;89.77;;;10.70;99.90;;;;;;5052839;28;20223;-76
2023/10/31 03:11:51;;;;;;;103.00;93.80;;;10.70;99.90;;;;;;5053068;28;20173;-76
2023/10/31 03:14:17;;;;;;;108.30;98.33;;;10.70;99.90;;;;;;5052813;28;20539;-76
2023/10/31 03:16:42;;;;;;;103.47;93.87;;;10.80;99.90;;;;;;5053091;28;20168;-76
2023/10/31 03:19:08;;;;;;;96.37;87.27;;;10.80;99.90;;;;;;5052735;28;20181;-76
2023/10/31 03:21:34;;;;;;;105.23;95.67;;;10.80;99.90;;;;;;5052817;28;20170;-76
2023/10/31 03:23:59;;;;;;;99.03;90.00;;;10.80;99.90;;;;;;5052689;28;20412;-76
2023/10/31 03:26:25;;;;;;;100.47;91.17;;;10.90;99.90;;;;;;5052814;28;20176;-76
2023/10/31 03:28:51;;;;;;;115.70;105.70;;;11.00;99.90;;;;;;5052702;28;20169;-76
2023/10/31 03:31:17;;;;;;;104.43;94.87;;;11.00;99.90;;;;;;5052925;28;20648;-76
2023/10/31 03:33:43;;;;;;;88.22;79.63;;;11.10;99.90;;;;;;5052560;28;20423;-76
2023/10/31 03:36:09;;;;;;;100.63;91.10;;;11.20;99.90;;;;;;5052650;28;20593;-76
2023/10/31 03:38:35;;;;;;;81.63;73.38;;;11.20;99.90;;;;;;5052562;28;20493;-76
2023/10/31 03:41:02;;;;;;;91.43;82.88;;;11.30;99.90;;;;;;5052819;28;20200;-76
2023/10/31 03:43:27;;;;;;;82.90;74.55;;;11.40;99.90;;;;;;5052496;28;20181;-76
2023/10/31 03:45:54;;;;;;;77.47;68.90;;;11.30;99.90;;;;;;5052597;28;20172;-76
2023/10/31 03:48:20;;;;;;;82.25;73.60;;;11.30;99.90;;;;;;5052551;28;20165;-76
2023/10/31 03:50:46;;;;;;;75.93;67.40;;;11.40;99.90;;;;;;5053134;28;20172;-76
2023/10/31 03:53:12;;;;;;;80.05;68.38;;;11.40;99.90;;;;;;5052468;28;20181;-76
2023/10/31 03:55:37;;;;;;;74.80;66.80;;;11.40;99.90;;;;;;5052482;28;20164;-76
2023/10/31 03:58:03;;;;;;;73.27;65.10;;;11.40;99.90;;;;;;5052321;28;20199;-76
2023/10/31 04:00:29;;;;;;;82.77;74.43;;;11.40;99.90;;;;;;5052573;28;20248;-76
2023/10/31 04:02:55;;;;;;;80.23;72.07;;;11.40;99.90;;;;;;5052351;28;20470;-76
2023/10/31 04:05:22;;;;;;;89.80;81.30;;;11.40;99.90;;;;;;5052788;28;20174;-76
2023/10/31 04:07:49;;;;;;;89.43;80.75;;;11.50;99.90;;;;;;5056048;28;20315;-76
2023/10/31 04:10:15;;;;;;;90.47;81.90;;;11.50;99.90;;;;;;5056041;28;20192;-76
2023/10/31 04:12:41;;;;;;;93.93;85.22;;;11.60;99.90;;;;;;5056142;28;20673;-76
2023/10/31 04:15:09;;;;;;;90.57;82.10;;;11.50;99.90;;;;;;5055871;28;20169;-75
2023/10/31 04:17:35;;;;;;;86.70;78.30;;;11.60;99.90;;;;;;5055645;28;20197;-76
2023/10/31 04:20:00;;;;;;;89.40;80.80;;;11.60;99.90;;;;;;5054624;28;20157;-76
2023/10/31 04:22:26;;;;;;;75.50;67.50;;;11.60;99.90;;;;;;5055754;28;20396;-76
2023/10/31 04:24:52;;;;;;;85.33;77.03;;;11.70;99.90;;;;;;5055956;28;20454;-76
2023/10/31 04:27:17;;;;;;;84.17;76.00;;;11.60;99.90;;;;;;5055970;28;20602;-76
2023/10/31 04:29:44;;;;;;;88.60;80.23;;;11.60;99.90;;;;;;5055654;28;20176;-76
2023/10/31 04:32:10;;;;;;;86.50;78.22;;;11.60;99.90;;;;;;5056267;28;20626;-76
2023/10/31 04:34:35;;;;;;;85.03;76.83;;;11.60;99.90;;;;;;5055508;28;20181;-76
2023/10/31 04:37:02;;;;;;;92.97;84.20;;;11.70;99.90;;;;;;5055520;28;20193;-76
2023/10/31 04:39:27;;;;;;;86.43;78.22;;;11.70;99.90;;;;;;5055675;28;20204;-76
2023/10/31 04:41:53;;;;;;;95.33;86.37;;;11.70;99.90;;;;;;5055485;28;20161;-76
2023/10/31 04:44:18;;;;;;;84.67;76.30;;;11.60;99.90;;;;;;5055393;28;20689;-76
2023/10/31 04:46:44;;;;;;;90.93;82.57;;;11.70;99.90;;;;;;5055613;28;20533;-76
2023/10/31 04:49:10;;;;;;;89.27;80.80;;;11.60;99.90;;;;;;5055633;28;20623;-76
2023/10/31 04:51:37;;;;;;;91.10;82.57;;;11.70;99.90;;;;;;5055353;28;20173;-76
2023/10/31 04:54:03;;;;;;;105.85;96.45;;;11.70;99.90;;;;;;5055173;28;20207;-76
2023/10/31 04:56:29;;;;;;;86.30;77.93;;;11.70;99.90;;;;;;5055437;28;20161;-76
2023/10/31 04:58:54;;;;;;;89.23;80.90;;;11.70;99.90;;;;;;5055176;28;20200;-76
2023/10/31 05:01:20;;;;;;;77.50;69.50;;;11.70;99.90;;;;;;5055074;28;20400;-76
2023/10/31 05:03:46;;;;;;;88.50;80.07;;;11.70;99.90;;;;;;5054943;28;20181;-76
2023/10/31 05:06:11;;;;;;;93.90;85.00;;;11.80;99.90;;;;;;5055073;28;20693;-76
2023/10/31 05:08:37;;;;;;;92.27;83.70;;;11.80;99.90;;;;;;5054972;28;20252;-76
2023/10/31 05:11:03;;;;;;;86.07;77.87;;;11.80;99.90;;;;;;5054894;28;20177;-76
2023/10/31 05:13:29;;;;;;;89.93;81.37;;;11.80;99.90;;;;;;5054762;28;20188;-76
2023/10/31 05:15:55;;;;;;;99.70;90.60;;;11.70;99.90;;;;;;5053396;28;20411;-76
2023/10/31 05:18:20;;;;;;;92.87;84.13;;;11.70;99.90;;;;;;5054344;28;20604;-76
2023/10/31 05:20:46;;;;;;;82.97;74.83;;;11.70;99.90;;;;;;5054710;28;20477;-76
2023/10/31 05:23:12;;;;;;;83.70;75.53;;;11.70;99.90;;;;;;5054672;28;20654;-76
2023/10/31 05:25:38;;;;;;;86.10;77.90;;;11.70;99.90;;;;;;5054662;28;20813;-76
2023/10/31 05:28:04;;;;;;;78.37;70.33;;;11.70;99.90;;;;;;5054608;28;20411;-76
2023/10/31 05:30:30;;;;;;;80.95;72.88;;;11.70;99.90;;;;;;5054530;28;20165;-76
2023/10/31 05:32:56;;;;;;;87.53;79.27;;;11.70;99.90;;;;;;5054736;28;20260;-76
2023/10/31 05:35:22;;;;;;;89.57;81.33;;;11.70;99.90;;;;;;5054719;28;20173;-76
2023/10/31 05:37:47;;;;;;;80.35;72.35;;;11.80;99.90;;;;;;5054590;28;20216;-76
2023/10/31 05:40:15;;;;;;;91.73;83.03;;;11.80;99.90;;;;;;5054638;28;20619;-76
2023/10/31 05:42:40;;;;;;;80.97;72.95;;;11.70;99.90;;;;;;5054228;28;20712;-76
2023/10/31 05:45:07;;;;;;;86.37;78.20;;;11.60;99.90;;;;;;5054555;28;20173;-76
2023/10/31 05:47:35;;;;;;;90.53;82.13;;;11.60;99.90;;;;;;5052909;28;20173;-76
2023/10/31 05:50:01;;;;;;;94.85;86.38;;;11.60;99.90;;;;;;5054074;28;20201;-76
2023/10/31 05:52:29;;;;;;;82.23;74.23;;;11.70;99.90;;;;;;5052730;28;20650;-76
2023/10/31 05:54:56;;;;;;;81.75;73.57;;;11.70;99.90;;;;;;5054283;28;20185;-76
2023/10/31 05:57:22;;;;;;;83.28;75.13;;;11.70;99.90;;;;;;5053921;28;20550;-76
2023/10/31 05:59:48;;;;;;;86.45;77.88;;;11.70;99.90;;;;;;5053028;28;20199;-76
2023/10/31 06:02:15;;;;;;;84.80;76.73;;;11.70;99.90;;;;;;5054089;28;20165;-75
2023/10/31 06:04:40;;;;;;;87.32;79.10;;;11.80;99.90;;;;;;5053804;28;20258;-76
2023/10/31 06:07:06;;;;;;;90.60;82.20;;;11.70;99.90;;;;;;5054315;28;20320;-76
2023/10/31 06:09:35;;;;;;;90.63;82.25;;;11.80;99.90;;;;;;5053755;28;20196;-76
2023/10/31 06:12:01;;;;;;;92.40;83.97;;;11.70;99.90;;;;;;5052429;28;20260;-76
2023/10/31 06:14:27;;;;;;;94.10;85.10;;;11.70;99.90;;;;;;5053654;28;20276;-76
2023/10/31 06:16:53;;;;;;;88.83;80.60;;;11.70;99.90;;;;;;5053832;28;20191;-76
2023/10/31 06:19:18;;;;;;;83.57;75.30;;;11.70;99.90;;;;;;5053347;28;20235;-76
2023/10/31 06:21:44;;;;;;;89.60;81.23;;;11.70;99.90;;;;;;5053661;28;20158;-76
2023/10/31 06:24:10;;;;;;;92.00;83.57;;;11.70;99.90;;;;;;5053348;28;20185;-76
2023/10/31 06:26:35;;;;;;;89.87;81.30;;;11.70;99.90;;;;;;5053414;28;20157;-76
2023/10/31 06:29:01;;;;;;;83.57;75.37;;;11.70;99.90;;;;;;5052684;28;20157;-76
2023/10/31 06:31:27;;;;;;;83.27;75.17;;;11.80;99.90;;;;;;5053361;28;20487;-76
2023/10/31 06:33:52;;;;;;;78.10;70.20;;;11.80;99.90;;;;;;5053204;28;20181;-76
2023/10/31 06:36:18;;;;;;;85.13;77.07;;;11.80;99.90;;;;;;5035876;28;20765;-77
2023/10/31 06:38:44;;;;;;;91.23;82.50;;;11.80;99.90;;;;;;5055376;28;20192;-76
2023/10/31 06:41:09;;;;;;;78.57;70.57;;;11.80;99.90;;;;;;5053426;28;20165;-76
2023/10/31 06:43:35;;;;;;;77.97;70.07;;;11.70;99.90;;;;;;5053030;28;20227;-76
2023/10/31 06:46:03;;;;;;;80.20;71.97;;;11.70;99.90;;;;;;5051800;28;20252;-76
2023/10/31 06:48:28;;;;;;;97.72;88.72;;;11.80;99.90;;;;;;5053227;28;20227;-76
2023/10/31 06:50:54;;;;;;;79.90;71.90;;;11.70;99.90;;;;;;5052997;28;20173;-76
2023/10/31 06:53:19;;;;;;;88.47;80.00;;;11.70;99.90;;;;;;5052734;28;20187;-76
2023/10/31 06:55:45;;;;;;;103.10;93.83;;;11.70;99.90;;;;;;5052927;28;20200;-76
2023/10/31 06:58:11;;;;;;;85.10;76.47;;;11.70;99.90;;;;;;5053004;28;20189;-76
2023/10/31 07:00:37;;;;;;;111.90;102.23;;;11.60;99.90;;;;;;5052955;28;20181;-75
2023/10/31 07:03:08;;;;;;;81.60;73.15;;;11.70;99.90;;;;;;5052847;28;20184;-76
2023/10/31 07:05:35;;;;;;;84.60;76.45;;;11.70;99.90;;;;;;5035036;28;20527;-76
2023/10/31 07:08:00;;;;;;;113.47;103.72;;;11.70;99.90;;;;;;5053437;28;20161;-76
2023/10/31 07:10:26;;;;;;;102.73;93.20;;;11.70;99.90;;;;;;5052933;28;20176;-76
2023/10/31 07:12:52;;;;;;;85.53;77.33;;;11.70;99.90;;;;;;5052788;28;20326;-76
2023/10/31 07:15:17;;;;;;;89.10;80.73;;;11.70;99.90;;;;;;5052892;28;20196;-76
2023/10/31 07:17:43;;;;;;;92.17;83.50;;;11.70;99.90;;;;;;5052655;28;20200;-76
2023/10/31 07:20:09;;;;;;;92.27;83.77;;;11.80;99.90;;;;;;5053076;28;20175;-76
2023/10/31 07:22:35;;;;;;;92.60;83.70;;;11.70;99.90;;;;;;5052743;28;20181;-76
2023/10/31 07:25:03;;;;;;;96.78;87.72;;;11.80;99.90;;;;;;5052669;28;20465;-76
2023/10/31 07:27:29;;;;;;;100.60;91.43;;;11.80;99.90;;;;;;5053010;28;20195;-76
2023/10/31 07:29:55;;;;;;;92.57;84.13;;;11.80;99.90;;;;;;5052764;28;20173;-76
2023/10/31 07:32:20;;;;;;;90.33;81.93;;;11.90;99.90;;;;;;5052908;28;20548;-76
2023/10/31 07:34:46;;;;;;;82.33;74.23;;;11.90;99.90;;;;;;5052979;28;20696;-76
2023/10/31 07:37:14;;;;;;;90.43;82.17;;;11.90;99.90;;;;;;5053034;28;20215;-76
2023/10/31 07:39:39;;;;;;;106.70;97.30;;;12.00;99.90;;;;;;5053802;28;20618;-76
2023/10/31 07:42:06;;;;;;;83.37;75.07;;;11.90;99.90;;;;;;5056606;28;20157;-76
2023/10/31 07:44:31;;;;;;;103.43;94.75;;;12.00;99.90;;;;;;5056409;28;20235;-76
2023/10/31 07:46:57;;;;;;;90.73;82.33;;;12.00;99.90;;;;;;5056502;28;20240;-76
2023/10/31 07:49:22;;;;;;;81.60;73.40;;;12.00;99.90;;;;;;5056697;28;20580;-76
2023/10/31 07:51:48;;;;;;;78.90;70.90;;;12.00;99.90;;;;;;5056687;28;20248;-76
2023/10/31 07:54:15;;;;;;;94.63;85.70;;;12.00;99.90;;;;;;5056496;28;20562;-76
2023/10/31 07:56:41;;;;;;;97.00;87.93;;;12.00;99.90;;;;;;5056145;28;20637;-76
2023/10/31 07:59:07;;;;;;;86.33;78.13;;;11.90;99.90;;;;;;5056540;28;20256;-76
2023/10/31 08:01:34;;;;;;;89.87;81.60;;;12.00;99.90;;;;;;5056499;28;20173;-76
2023/10/31 08:04:00;;;;;;;91.88;83.20;;;12.00;99.90;;;;;;5056099;28;20427;-76
2023/10/31 08:06:26;;;;;;;84.17;76.07;;;12.00;99.90;;;;;;5056057;28;20538;-76
2023/10/31 08:08:52;;;;;;;95.20;86.40;;;12.00;99.90;;;;;;5056053;28;20403;-76
2023/10/31 08:11:18;;;;;;;100.85;91.68;;;12.00;99.90;;;;;;5056000;28;20211;-75
2023/10/31 08:13:44;;;;;;;87.15;78.97;;;12.00;99.90;;;;;;5055916;28;20200;-76
2023/10/31 08:16:10;;;;;;;67.27;57.97;;;12.10;99.90;;;;;;5056004;28;20169;-76
2023/10/31 08:18:36;;;;;;;67.70;58.37;;;12.10;99.90;;;;;;5055758;28;20205;-76
2023/10/31 08:21:03;;;;;;;73.00;65.07;;;12.10;99.90;;;;;;5055841;28;20403;-76
2023/10/31 08:23:29;;;;;;;81.68;73.43;;;12.20;99.90;;;;;;5055697;28;20203;-76
2023/10/31 08:25:55;;;;;;;68.80;59.22;;;12.30;99.90;;;;;;5055763;28;20240;-76
2023/10/31 08:28:20;;;;;;;77.17;69.20;;;12.30;99.90;;;;;;5055894;28;20692;-77
2023/10/31 08:30:46;;;;;;;81.40;73.37;;;12.40;99.90;;;;;;5056109;28;20746;-76
2023/10/31 08:33:12;;;;;;;69.40;60.92;;;12.50;99.90;;;;;;5055531;28;20554;-76
2023/10/31 08:35:38;;;;;;;98.90;89.70;;;12.50;99.90;;;;;;5055524;28;20165;-76
2023/10/31 08:38:04;;;;;;;66.00;53.63;;;12.50;99.90;;;;;;5055676;28;20794;-76
2023/10/31 08:40:29;;;;;;;64.80;53.87;;;12.50;99.90;;;;;;5055499;28;20538;-76
2023/10/31 08:42:55;;;;;;;65.70;53.93;;;12.60;99.90;;;;;;5055635;28;20192;-76
2023/10/31 08:45:21;;;;;;;90.80;81.93;;;12.60;99.90;;;;;;5055383;28;20169;-76
2023/10/31 08:47:47;;;;;;;66.60;52.60;;;12.70;99.90;;;;;;5055359;28;20184;-76
2023/10/31 08:50:13;;;;;;;62.97;49.23;;;12.70;99.90;;;;;;5055304;28;20625;-76
2023/10/31 08:52:39;;;;;;;64.03;49.35;;;12.70;99.90;;;;;;5054475;28;20184;-76
2023/10/31 08:55:06;;;;;;;71.63;56.80;;;12.70;99.90;;;;;;5055384;28;20626;-76
2023/10/31 08:57:33;;;;;;;62.05;46.42;;;12.70;99.90;;;;;;5055320;28;20466;-76
2023/10/31 08:59:59;;;;;;;65.68;52.95;;;12.70;99.90;;;;;;5055094;28;20153;-76
2023/10/31 09:02:28;;;;;;;95.47;86.57;;;12.60;99.90;;;;;;5055245;28;20158;-76
2023/10/31 09:04:54;;;;;;;65.18;54.90;;;12.60;99.90;;;;;;5053777;28;20173;-76
2023/10/31 09:07:19;;;;;;;64.47;57.23;;;12.60;99.90;;;;;;5053732;28;20169;-76
2023/10/31 09:09:45;;;;;;;58.40;39.03;;;12.70;99.90;;;;;;5055166;28;20170;-76
2023/10/31 09:12:10;;;;;;;67.30;47.93;;;12.70;99.90;;;;;;5055171;28;20531;-76
2023/10/31 09:14:36;;;;;;;60.90;46.97;;;12.60;99.90;;;;;;5054781;28;20531;-76
2023/10/31 09:17:05;;;;;;;62.90;49.43;;;12.60;99.90;;;;;;5054925;28;20528;-76
2023/10/31 09:19:31;;;;;;;66.80;56.05;;;12.60;99.90;;;;;;5054799;28;20396;-76
2023/10/31 09:21:56;;;;;;;63.73;50.33;;;12.70;99.90;;;;;;5054686;28;20173;-76
2023/10/31 09:24:23;;;;;;;64.83;56.10;;;12.70;99.90;;;;;;5054850;28;20574;-76
2023/10/31 09:26:49;;;;;;;64.65;52.45;;;12.70;99.90;;;;;;5054914;28;20564;-76
2023/10/31 09:29:15;;;;;;;66.27;58.60;;;12.80;99.90;;;;;;5054571;28;20201;-76
2023/10/31 09:31:40;;;;;;;62.83;50.17;;;12.90;99.90;;;;;;5054528;28;20166;-76
2023/10/31 09:34:07;;;;;;;61.50;45.13;;;13.00;99.90;;;;;;5054441;28;20551;-76
2023/10/31 09:36:34;;;;;;;73.75;62.65;;;13.20;99.90;;;;;;5054705;28;20158;-76
2023/10/31 09:39:00;;;;;;;56.85;41.45;;;13.30;99.90;;;;;;5054292;28;20193;-76
2023/10/31 09:41:26;;;;;;;57.20;38.60;;;13.30;99.90;;;;;;5055134;28;20165;-76
2023/10/31 09:43:53;;;;;;;59.57;45.20;;;13.50;99.90;;;;;;5054182;28;20188;-76
2023/10/31 09:46:18;;;;;;;67.03;59.60;;;13.50;99.90;;;;;;5054465;28;20523;-76
2023/10/31 09:48:44;;;;;;;55.90;38.33;;;13.50;99.90;;;;;;5054501;28;20196;-76
2023/10/31 09:51:11;;;;;;;152.90;141.80;;;13.50;99.90;;;;;;5036298;28;20549;-76
2023/10/31 09:53:41;;;;;;;52.53;29.50;;;13.50;99.90;;;;;;5054295;28;20239;-76
2023/10/31 09:56:08;;;;;;;53.72;29.10;;;13.50;99.90;;;;;;5054045;28;20407;-76
2023/10/31 09:58:34;;;;;;;50.88;25.48;;;13.50;99.90;;;;;;5054717;28;20185;-78
2023/10/31 10:01:00;;;;;;;51.88;28.92;;;13.60;99.90;;;;;;5055107;28;20223;-75
2023/10/31 10:03:27;;;;;;;52.97;31.57;;;13.80;99.90;;;;;;5052831;28;20662;-76
2023/10/31 10:05:53;;;;;;;55.30;27.97;;;13.90;99.90;;;;;;5053902;28;20478;-76
2023/10/31 10:08:20;;;;;;;50.57;26.10;;;14.10;99.90;;;;;;5053895;28;20444;-76
2023/10/31 10:10:45;;;;;;;53.33;30.37;;;14.30;99.90;;;;;;5053797;28;20205;-76
2023/10/31 10:13:12;;;;;;;49.80;24.10;;;14.30;99.90;;;;;;5053640;28;20463;-76
2023/10/31 10:15:55;;;;;;;48.33;23.00;;;14.50;99.90;;;;;;5053995;28;20164;-76
2023/10/31 10:18:30;;;;;;;43.90;13.30;;;14.60;99.90;;;;;;5053773;28;20488;-76
2023/10/31 10:21:02;;;;;;;42.77;11.57;;;14.70;99.90;;;;;;5053537;28;20824;-76
2023/10/31 10:23:29;;;;;;;42.30;10.40;;;14.70;99.90;;;;;;5053735;28;20959;-76
2023/10/31 10:25:57;;;;;;;40.50;8.87;;;14.80;99.90;;;;;;5053786;28;20399;-76
2023/10/31 10:28:24;;;;;;;43.30;10.17;;;14.90;99.90;;;;;;5035633;28;20956;-76
2023/10/31 10:30:51;;;;;;;41.50;8.80;;;14.80;99.90;;;;;;5053639;28;20766;-76
2023/10/31 10:33:18;;;;;;;39.00;7.97;;;14.90;98.80;;;;;;5053293;28;20513;-76
2023/10/31 10:35:44;;;;;;;37.87;6.30;;;15.10;99.30;;;;;;5053543;28;20403;-76
2023/10/31 10:38:15;;;;;;;37.77;5.83;;;15.20;93.60;;;;;;5053213;28;20442;-76
2023/10/31 10:40:42;;;;;;;39.13;8.33;;;15.20;91.90;;;;;;5053511;28;20820;-76
2023/10/31 10:43:22;;;;;;;38.40;5.50;;;15.30;92.10;;;;;;5053407;28;21015;-76
2023/10/31 10:45:56;;;;;;;36.97;5.40;;;15.30;90.10;;;;;;5053219;28;20457;-76
2023/10/31 10:48:38;;;;;;;36.77;6.57;;;15.50;92.80;;;;;;5053576;28;20411;-76
2023/10/31 10:51:16;;;;;;;36.40;5.50;;;15.50;79.80;;;;;;5053494;28;20466;-76
2023/10/31 10:53:52;;;;;;;38.30;6.40;;;15.40;81.70;;;;;;5053000;28;20424;-76
2023/10/31 10:56:26;;;;;;;37.80;5.10;;;15.40;86.60;;;;;;5053056;28;20876;-76
2023/10/31 10:59:00;;;;;;;39.40;7.97;;;15.30;81.70;;;;;;5053102;28;20947;-76
2023/10/31 11:01:27;;;;;;;40.57;7.80;;;15.00;94.40;;;;;;5053394;28;20384;-76
2023/10/31 11:03:55;;;;;;;39.20;6.47;;;15.20;93.20;;;;;;5053016;28;20516;-76
2023/10/31 11:06:21;;;;;;;39.47;7.07;;;15.30;92.90;;;;;;5052940;28;20424;-76
2023/10/31 11:08:47;;;;;;;38.53;5.90;;;15.30;93.50;;;;;;5053012;28;20404;-76
2023/10/31 11:11:16;;;;;;;38.93;7.63;;;15.40;90.50;;;;;;5053153;28;20404;-76
2023/10/31 11:13:46;;;;;;;37.90;5.37;;;15.50;95.50;;;;;;5053081;28;20428;-76
2023/10/31 11:16:17;;;;;;;37.60;6.60;;;15.50;92.30;;;;;;5056704;28;20445;-76
2023/10/31 11:18:43;;;;;;;38.07;5.70;;;15.50;74.00;;;;;;5057013;28;20451;-76
2023/10/31 11:21:09;;;;;;;36.67;5.37;;;15.40;78.60;;;;;;5057214;28;20407;-76
2023/10/31 11:23:35;;;;;;;36.77;5.43;;;15.30;84.70;;;;;;5056665;28;20776;-76
2023/10/31 11:26:01;;;;;;;36.40;4.83;;;15.40;74.30;;;;;;5057468;28;20231;-76
2023/10/31 11:28:27;;;;;;;35.67;3.97;;;15.30;69.50;;;;;;5056820;28;20408;-76
2023/10/31 11:30:58;;;;;;;35.53;5.50;;;15.20;66.60;;;;;;5057124;28;20429;-76
2023/10/31 11:33:24;;;;;;;35.20;4.90;;;15.20;73.50;;;;;;5056749;28;20658;-76
2023/10/31 11:35:59;;;;;;;37.60;5.30;;;15.30;78.00;;;;;;5057008;28;20445;-76
2023/10/31 11:38:35;;;;;;;35.23;5.10;;;15.40;77.30;;;;;;5056643;28;20423;-76
2023/10/31 11:41:02;;;;;;;37.40;5.10;;;15.40;74.90;;;;;;5056946;28;20395;-75
2023/10/31 11:43:40;;;;;;;35.30;4.23;;;15.30;72.10;;;;;;5056786;28;20485;-76
2023/10/31 11:46:08;;;;;;;35.47;5.07;;;15.40;78.80;;;;;;5056589;28;20396;-76
2023/10/31 11:48:51;;;;;;;38.03;5.80;;;15.30;76.80;;;;;;5038579;28;20433;-76
2023/10/31 11:51:16;;;;;;;38.57;6.47;;;15.10;83.40;;;;;;5056443;28;20387;-76
2023/10/31 11:53:44;;;;;;;39.97;8.70;;;15.10;92.00;;;;;;5038496;28;20422;-76
2023/10/31 11:56:12;;;;;;;40.13;7.07;;;15.20;93.10;;;;;;5056376;28;20169;-76
2023/10/31 11:58:38;;;;;;;37.73;5.07;;;15.30;90.70;;;;;;5056551;28;20435;-76
2023/10/31 12:01:08;;;;;;;35.80;5.53;;;15.30;75.60;;;;;;5056167;28;20936;-76
2023/10/31 12:03:41;;;;;;;35.60;4.50;;;15.30;61.10;;;;;;5056151;28;20177;-76
2023/10/31 12:06:11;;;;;;;42.00;6.80;;;15.30;58.30;;;;;;5056217;28;20463;-76
2023/10/31 12:08:39;;;;;;;38.60;6.17;;;15.20;67.50;;;;;;5056397;28;20403;-76
2023/10/31 12:11:16;;;;;;;37.00;5.97;;;15.30;37.80;;;;;;5056061;28;20442;-76
2023/10/31 12:13:51;;;;;;;36.60;5.13;;;15.40;1.00;;;;;;5056250;28;20476;-76
2023/10/31 12:16:17;;;;;;;38.07;4.53;;;15.50;1.00;;;;;;5055939;28;20952;-76
2023/10/31 12:18:43;;;;;;;36.23;5.23;;;15.40;1.00;;;;;;5037838;28;20512;-76
2023/10/31 12:21:11;;;;;;;35.77;5.53;;;15.40;1.00;;;;;;5056165;28;20404;-76
2023/10/31 12:23:37;;;;;;;36.17;3.70;;;15.40;1.00;;;;;;5055733;28;20277;-76